Gentle Leader — C6WY9 — position and weather

sailwx.info

Track history (hours):
 
Tides and Currents Weather Stations Pressure Air Temp Water Temp Dewpoint Dewpoint Depression Visibility Wind Speed Wind Dir Waves Ship Positions

Gentle Leader

Last reported at 2017-Feb-24 08:33 UTC. Time now 2017-Feb-26 16:51 UTC.
Position N 01°55' E 102°20'.

Length 200 m; draft 8.9 m.

Type: Cargo ship. MMSI: 311003300.

Date/timePositionNaut miles runAvg speedWind from/ knotsBaromVisibWave heightAir tempDewpointWater temp
2017-Feb-24 08:33N 01°55' E 102°20'6820.0
2017-Feb-24 05:11N 01°19' E 103°18'1117.3
2017-Feb-24 04:33N 01°13' E 103°27'1312.8
2017-Feb-24 03:33N 01°12' E 103°40'7 6.7
2017-Feb-24 02:33N 01°17' E 103°45'0 0.3
2017-Feb-24 01:29N 01°17' E 103°45'0 0.0
2017-Feb-24 00:32N 01°17' E 103°45'0 0.0
2017-Feb-23 23:32N 01°17' E 103°45'0 0.0
2017-Feb-23 22:32N 01°17' E 103°45'0 0.0
2017-Feb-23 21:32N 01°17' E 103°45'0 0.0
2017-Feb-23 20:23N 01°17' E 103°45'0 0.1
2017-Feb-23 19:34N 01°17' E 103°45'9 8.5
2017-Feb-23 18:33N 01°13' E 103°53'2 1.5
2017-Feb-23 17:12N 01°15' E 103°53'0 0.0
2017-Feb-23 16:21N 01°15' E 103°53'0 0.0
2017-Feb-23 15:33N 01°15' E 103°53'0 0.0
2017-Feb-23 14:33N 01°15' E 103°53'0 0.0
2017-Feb-23 13:24N 01°15' E 103°53'0 0.1
2017-Feb-23 12:27N 01°15' E 103°53'4 4.8
2017-Feb-23 11:33N 01°15' E 103°58'  
Track history (hours):
 
Tides and Currents Weather Stations Pressure Air Temp Water Temp Dewpoint Dewpoint Depression Visibility Wind Speed Wind Dir Waves Ship Positions

Gentle Leader

Last reported at 2017-Feb-24 08:33 UTC. Time now 2017-Feb-26 16:51 UTC.
Position N 01°55' E 102°20'.

Length 200 m; draft 8.9 m.

Type: Cargo ship. MMSI: 311003300.

Date/timePositionNaut miles runAvg speedWind from/ knotsBaromVisibWave heightAir tempDewpointWater temp
2017-Feb-24 08:33N 01°55' E 102°20'6820.0
2017-Feb-24 05:11N 01°19' E 103°18'1117.3
2017-Feb-24 04:33N 01°13' E 103°27'1312.8
2017-Feb-24 03:33N 01°12' E 103°40'7 6.7
2017-Feb-24 02:33N 01°17' E 103°45'0 0.3
2017-Feb-24 01:29N 01°17' E 103°45'0 0.0
2017-Feb-24 00:32N 01°17' E 103°45'0 0.0
2017-Feb-23 23:32N 01°17' E 103°45'0 0.0
2017-Feb-23 22:32N 01°17' E 103°45'0 0.0
2017-Feb-23 21:32N 01°17' E 103°45'0 0.0
2017-Feb-23 20:23N 01°17' E 103°45'0 0.1
2017-Feb-23 19:34N 01°17' E 103°45'9 8.5
2017-Feb-23 18:33N 01°13' E 103°53'2 1.5
2017-Feb-23 17:12N 01°15' E 103°53'0 0.0
2017-Feb-23 16:21N 01°15' E 103°53'0 0.0
2017-Feb-23 15:33N 01°15' E 103°53'0 0.0
2017-Feb-23 14:33N 01°15' E 103°53'0 0.0
2017-Feb-23 13:24N 01°15' E 103°53'0 0.1
2017-Feb-23 12:27N 01°15' E 103°53'4 4.8
2017-Feb-23 11:33N 01°15' E 103°58'  

Dump ship's entire track history